sensor_id;sensor_type;location;lat;lon;timestamp;P1;durP1;ratioP1;P2;durP2;ratioP2
25948;SDS011;13961;51.178;4.448;2022-08-14T00:02:23;7.05;;;3.85;;
25948;SDS011;13961;51.178;4.448;2022-08-14T00:04:49;4.00;;;3.60;;
25948;SDS011;13961;51.178;4.448;2022-08-14T00:07:14;4.30;;;3.70;;
25948;SDS011;13961;51.178;4.448;2022-08-14T00:09:41;5.57;;;3.40;;
25948;SDS011;13961;51.178;4.448;2022-08-14T00:12:07;3.97;;;3.50;;
25948;SDS011;13961;51.178;4.448;2022-08-14T00:14:33;4.70;;;3.88;;
25948;SDS011;13961;51.178;4.448;2022-08-14T00:16:59;4.90;;;3.80;;
25948;SDS011;13961;51.178;4.448;2022-08-14T00:19:25;5.20;;;4.60;;
25948;SDS011;13961;51.178;4.448;2022-08-14T00:21:50;6.18;;;4.20;;
25948;SDS011;13961;51.178;4.448;2022-08-14T00:24:19;6.20;;;3.92;;
25948;SDS011;13961;51.178;4.448;2022-08-14T00:26:46;4.53;;;4.10;;
25948;SDS011;13961;51.178;4.448;2022-08-14T00:29:11;6.00;;;3.78;;
25948;SDS011;13961;51.178;4.448;2022-08-14T00:31:37;5.38;;;4.45;;
25948;SDS011;13961;51.178;4.448;2022-08-14T00:34:03;5.40;;;4.07;;
25948;SDS011;13961;51.178;4.448;2022-08-14T00:36:28;6.22;;;3.92;;
25948;SDS011;13961;51.178;4.448;2022-08-14T00:38:54;5.75;;;3.92;;
25948;SDS011;13961;51.178;4.448;2022-08-14T00:41:20;4.85;;;3.90;;
25948;SDS011;13961;51.178;4.448;2022-08-14T00:43:45;5.10;;;3.65;;
25948;SDS011;13961;51.178;4.448;2022-08-14T00:46:11;3.70;;;3.40;;
25948;SDS011;13961;51.178;4.448;2022-08-14T00:48:37;4.82;;;3.90;;
25948;SDS011;13961;51.178;4.448;2022-08-14T00:51:07;7.95;;;3.70;;
25948;SDS011;13961;51.178;4.448;2022-08-14T00:53:34;5.50;;;3.70;;
25948;SDS011;13961;51.178;4.448;2022-08-14T00:56:05;4.47;;;3.67;;
25948;SDS011;13961;51.178;4.448;2022-08-14T00:58:32;5.05;;;3.65;;
25948;SDS011;13961;51.178;4.448;2022-08-14T01:01:08;5.88;;;3.72;;
25948;SDS011;13961;51.178;4.448;2022-08-14T01:03:35;3.83;;;3.42;;
25948;SDS011;13961;51.178;4.448;2022-08-14T01:06:04;3.88;;;3.50;;
25948;SDS011;13961;51.178;4.448;2022-08-14T01:08:34;4.47;;;3.78;;
25948;SDS011;13961;51.178;4.448;2022-08-14T01:11:00;5.05;;;4.10;;
25948;SDS011;13961;51.178;4.448;2022-08-14T01:13:31;5.47;;;3.80;;
25948;SDS011;13961;51.178;4.448;2022-08-14T01:16:02;4.50;;;3.80;;
25948;SDS011;13961;51.178;4.448;2022-08-14T01:18:30;5.63;;;3.88;;
25948;SDS011;13961;51.178;4.448;2022-08-14T01:21:16;6.45;;;4.30;;
25948;SDS011;13961;51.178;4.448;2022-08-14T01:24:09;5.00;;;4.25;;
25948;SDS011;13961;51.178;4.448;2022-08-14T01:26:39;4.40;;;3.67;;
25948;SDS011;13961;51.178;4.448;2022-08-14T01:29:05;6.28;;;3.55;;
25948;SDS011;13961;51.178;4.448;2022-08-14T01:31:33;4.40;;;3.90;;
25948;SDS011;13961;51.178;4.448;2022-08-14T01:34:10;4.88;;;3.50;;
25948;SDS011;13961;51.178;4.448;2022-08-14T01:36:37;4.38;;;3.90;;
25948;SDS011;13961;51.178;4.448;2022-08-14T01:39:04;5.07;;;3.70;;
25948;SDS011;13961;51.178;4.448;2022-08-14T01:41:32;5.53;;;4.07;;
25948;SDS011;13961;51.178;4.448;2022-08-14T01:44:00;4.97;;;3.88;;
25948;SDS011;13961;51.178;4.448;2022-08-14T01:46:32;10.30;;;4.05;;
25948;SDS011;13961;51.178;4.448;2022-08-14T01:49:00;5.63;;;4.13;;
25948;SDS011;13961;51.178;4.448;2022-08-14T01:51:28;5.70;;;4.07;;
25948;SDS011;13961;51.178;4.448;2022-08-14T01:53:55;5.50;;;4.07;;
25948;SDS011;13961;51.178;4.448;2022-08-14T01:56:29;4.68;;;4.10;;
25948;SDS011;13961;51.178;4.448;2022-08-14T02:01:40;6.07;;;3.75;;
25948;SDS011;13961;51.178;4.448;2022-08-14T02:04:06;4.53;;;4.05;;
25948;SDS011;13961;51.178;4.448;2022-08-14T02:06:31;6.55;;;4.20;;
25948;SDS011;13961;51.178;4.448;2022-08-14T02:08:57;5.63;;;4.05;;
25948;SDS011;13961;51.178;4.448;2022-08-14T02:11:23;4.88;;;3.95;;
25948;SDS011;13961;51.178;4.448;2022-08-14T02:14:00;5.70;;;4.30;;
25948;SDS011;13961;51.178;4.448;2022-08-14T02:16:30;5.30;;;3.88;;
25948;SDS011;13961;51.178;4.448;2022-08-14T02:19:01;4.90;;;4.38;;
25948;SDS011;13961;51.178;4.448;2022-08-14T02:21:29;8.15;;;4.32;;
25948;SDS011;13961;51.178;4.448;2022-08-14T02:23:57;4.95;;;4.25;;
25948;SDS011;13961;51.178;4.448;2022-08-14T02:26:29;5.25;;;4.30;;
25948;SDS011;13961;51.178;4.448;2022-08-14T02:29:04;4.93;;;4.13;;
25948;SDS011;13961;51.178;4.448;2022-08-14T02:31:33;6.00;;;4.95;;
25948;SDS011;13961;51.178;4.448;2022-08-14T02:34:05;6.65;;;4.15;;
25948;SDS011;13961;51.178;4.448;2022-08-14T02:36:37;5.78;;;4.57;;
25948;SDS011;13961;51.178;4.448;2022-08-14T02:39:05;5.82;;;4.80;;
25948;SDS011;13961;51.178;4.448;2022-08-14T02:41:33;5.03;;;4.53;;
25948;SDS011;13961;51.178;4.448;2022-08-14T02:44:00;5.63;;;4.53;;
25948;SDS011;13961;51.178;4.448;2022-08-14T02:46:27;6.15;;;4.90;;
25948;SDS011;13961;51.178;4.448;2022-08-14T02:48:54;6.18;;;4.55;;
25948;SDS011;13961;51.178;4.448;2022-08-14T02:51:20;6.70;;;4.93;;
25948;SDS011;13961;51.178;4.448;2022-08-14T02:53:46;6.68;;;4.88;;
25948;SDS011;13961;51.178;4.448;2022-08-14T02:56:12;7.60;;;4.85;;
25948;SDS011;13961;51.178;4.448;2022-08-14T02:58:39;6.88;;;4.90;;
25948;SDS011;13961;51.178;4.448;2022-08-14T03:01:08;8.10;;;5.55;;
25948;SDS011;13961;51.178;4.448;2022-08-14T03:03:35;8.40;;;4.88;;
25948;SDS011;13961;51.178;4.448;2022-08-14T03:06:02;5.75;;;4.72;;
25948;SDS011;13961;51.178;4.448;2022-08-14T03:08:29;7.68;;;5.53;;
25948;SDS011;13961;51.178;4.448;2022-08-14T03:11:01;6.10;;;5.25;;
25948;SDS011;13961;51.178;4.448;2022-08-14T03:13:34;7.57;;;5.13;;
25948;SDS011;13961;51.178;4.448;2022-08-14T03:16:03;8.00;;;5.30;;
25948;SDS011;13961;51.178;4.448;2022-08-14T03:18:31;6.97;;;5.40;;
25948;SDS011;13961;51.178;4.448;2022-08-14T03:20:57;6.40;;;4.95;;
25948;SDS011;13961;51.178;4.448;2022-08-14T03:23:24;7.57;;;5.07;;
25948;SDS011;13961;51.178;4.448;2022-08-14T03:25:49;7.15;;;5.38;;
25948;SDS011;13961;51.178;4.448;2022-08-14T03:28:15;7.93;;;5.63;;
25948;SDS011;13961;51.178;4.448;2022-08-14T03:30:41;7.22;;;6.03;;
25948;SDS011;13961;51.178;4.448;2022-08-14T03:33:08;6.70;;;5.53;;
25948;SDS011;13961;51.178;4.448;2022-08-14T03:35:35;9.80;;;5.97;;
25948;SDS011;13961;51.178;4.448;2022-08-14T03:38:09;8.05;;;5.90;;
25948;SDS011;13961;51.178;4.448;2022-08-14T03:40:36;8.23;;;6.18;;
25948;SDS011;13961;51.178;4.448;2022-08-14T03:43:06;7.88;;;6.13;;
25948;SDS011;13961;51.178;4.448;2022-08-14T03:45:34;11.15;;;6.10;;
25948;SDS011;13961;51.178;4.448;2022-08-14T03:48:15;8.48;;;6.22;;
25948;SDS011;13961;51.178;4.448;2022-08-14T03:50:47;7.00;;;6.00;;
25948;SDS011;13961;51.178;4.448;2022-08-14T03:53:16;8.75;;;6.55;;
25948;SDS011;13961;51.178;4.448;2022-08-14T03:55:44;8.93;;;6.60;;
25948;SDS011;13961;51.178;4.448;2022-08-14T03:58:10;7.72;;;6.43;;
25948;SDS011;13961;51.178;4.448;2022-08-14T04:00:36;6.50;;;5.60;;
25948;SDS011;13961;51.178;4.448;2022-08-14T04:03:03;10.50;;;6.85;;
25948;SDS011;13961;51.178;4.448;2022-08-14T04:05:30;7.05;;;6.28;;
25948;SDS011;13961;51.178;4.448;2022-08-14T04:07:56;8.82;;;6.05;;
25948;SDS011;13961;51.178;4.448;2022-08-14T04:10:22;6.95;;;5.93;;
25948;SDS011;13961;51.178;4.448;2022-08-14T04:12:48;8.65;;;5.95;;
25948;SDS011;13961;51.178;4.448;2022-08-14T04:15:14;8.30;;;6.18;;
25948;SDS011;13961;51.178;4.448;2022-08-14T04:17:44;7.10;;;5.95;;
25948;SDS011;13961;51.178;4.448;2022-08-14T04:20:10;10.30;;;6.07;;
25948;SDS011;13961;51.178;4.448;2022-08-14T04:22:36;6.97;;;5.80;;
25948;SDS011;13961;51.178;4.448;2022-08-14T04:25:06;6.97;;;5.60;;
25948;SDS011;13961;51.178;4.448;2022-08-14T04:27:32;8.68;;;6.20;;
25948;SDS011;13961;51.178;4.448;2022-08-14T04:29:59;9.77;;;6.75;;
25948;SDS011;13961;51.178;4.448;2022-08-14T04:32:25;6.57;;;5.75;;
25948;SDS011;13961;51.178;4.448;2022-08-14T04:34:51;7.78;;;6.35;;
25948;SDS011;13961;51.178;4.448;2022-08-14T04:37:24;9.38;;;5.82;;
25948;SDS011;13961;51.178;4.448;2022-08-14T04:40:09;9.35;;;6.25;;
25948;SDS011;13961;51.178;4.448;2022-08-14T04:42:53;12.00;;;6.28;;
25948;SDS011;13961;51.178;4.448;2022-08-14T04:45:38;9.68;;;5.68;;
25948;SDS011;13961;51.178;4.448;2022-08-14T04:48:08;6.78;;;5.90;;
25948;SDS011;13961;51.178;4.448;2022-08-14T04:50:45;11.77;;;6.45;;
25948;SDS011;13961;51.178;4.448;2022-08-14T04:53:13;7.75;;;6.28;;
25948;SDS011;13961;51.178;4.448;2022-08-14T04:55:41;8.75;;;5.88;;
25948;SDS011;13961;51.178;4.448;2022-08-14T04:58:12;8.27;;;6.28;;
25948;SDS011;13961;51.178;4.448;2022-08-14T05:00:42;11.07;;;6.13;;
25948;SDS011;13961;51.178;4.448;2022-08-14T05:03:09;8.77;;;6.32;;
25948;SDS011;13961;51.178;4.448;2022-08-14T05:05:35;10.23;;;7.00;;
25948;SDS011;13961;51.178;4.448;2022-08-14T05:08:07;8.13;;;6.30;;
25948;SDS011;13961;51.178;4.448;2022-08-14T05:10:37;6.97;;;5.47;;
25948;SDS011;13961;51.178;4.448;2022-08-14T05:13:06;9.75;;;6.80;;
25948;SDS011;13961;51.178;4.448;2022-08-14T05:15:33;12.80;;;6.35;;
25948;SDS011;13961;51.178;4.448;2022-08-14T05:18:02;8.38;;;6.57;;
25948;SDS011;13961;51.178;4.448;2022-08-14T05:20:43;10.07;;;6.13;;
25948;SDS011;13961;51.178;4.448;2022-08-14T05:23:11;8.55;;;6.57;;
25948;SDS011;13961;51.178;4.448;2022-08-14T05:25:38;8.50;;;6.85;;
25948;SDS011;13961;51.178;4.448;2022-08-14T05:28:08;8.48;;;6.40;;
25948;SDS011;13961;51.178;4.448;2022-08-14T05:30:43;7.95;;;6.10;;
25948;SDS011;13961;51.178;4.448;2022-08-14T05:33:10;9.00;;;6.80;;
25948;SDS011;13961;51.178;4.448;2022-08-14T05:35:37;7.18;;;6.15;;
25948;SDS011;13961;51.178;4.448;2022-08-14T05:38:07;6.25;;;5.32;;
25948;SDS011;13961;51.178;4.448;2022-08-14T05:40:33;9.82;;;5.68;;
25948;SDS011;13961;51.178;4.448;2022-08-14T05:42:59;7.40;;;5.40;;
25948;SDS011;13961;51.178;4.448;2022-08-14T05:45:25;8.18;;;5.28;;
25948;SDS011;13961;51.178;4.448;2022-08-14T05:47:51;7.70;;;5.25;;
25948;SDS011;13961;51.178;4.448;2022-08-14T05:50:16;27.40;;;5.60;;
25948;SDS011;13961;51.178;4.448;2022-08-14T05:52:42;6.95;;;4.75;;
25948;SDS011;13961;51.178;4.448;2022-08-14T05:55:08;6.38;;;5.10;;
25948;SDS011;13961;51.178;4.448;2022-08-14T05:57:45;6.28;;;4.63;;
25948;SDS011;13961;51.178;4.448;2022-08-14T06:00:12;7.25;;;4.93;;
25948;SDS011;13961;51.178;4.448;2022-08-14T06:02:38;5.15;;;4.65;;
25948;SDS011;13961;51.178;4.448;2022-08-14T06:05:04;7.57;;;5.35;;
25948;SDS011;13961;51.178;4.448;2022-08-14T06:07:30;9.60;;;5.95;;
25948;SDS011;13961;51.178;4.448;2022-08-14T06:09:55;14.13;;;6.32;;
25948;SDS011;13961;51.178;4.448;2022-08-14T06:12:21;7.60;;;6.32;;
25948;SDS011;13961;51.178;4.448;2022-08-14T06:14:46;11.52;;;6.35;;
25948;SDS011;13961;51.178;4.448;2022-08-14T06:17:12;8.43;;;6.55;;
25948;SDS011;13961;51.178;4.448;2022-08-14T06:19:37;8.15;;;6.40;;
25948;SDS011;13961;51.178;4.448;2022-08-14T06:22:03;9.52;;;6.00;;
25948;SDS011;13961;51.178;4.448;2022-08-14T06:24:29;11.70;;;5.82;;
25948;SDS011;13961;51.178;4.448;2022-08-14T06:26:54;9.75;;;5.57;;
25948;SDS011;13961;51.178;4.448;2022-08-14T06:29:20;6.28;;;5.47;;
25948;SDS011;13961;51.178;4.448;2022-08-14T06:31:46;7.53;;;5.97;;
25948;SDS011;13961;51.178;4.448;2022-08-14T06:34:11;8.10;;;5.82;;
25948;SDS011;13961;51.178;4.448;2022-08-14T06:36:37;10.57;;;5.50;;
25948;SDS011;13961;51.178;4.448;2022-08-14T06:39:03;8.23;;;5.63;;
25948;SDS011;13961;51.178;4.448;2022-08-14T06:41:29;8.45;;;6.35;;
25948;SDS011;13961;51.178;4.448;2022-08-14T06:43:54;7.80;;;5.53;;
25948;SDS011;13961;51.178;4.448;2022-08-14T06:46:20;8.20;;;5.72;;
25948;SDS011;13961;51.178;4.448;2022-08-14T06:48:47;7.45;;;6.20;;
25948;SDS011;13961;51.178;4.448;2022-08-14T06:51:13;9.45;;;5.93;;
25948;SDS011;13961;51.178;4.448;2022-08-14T06:53:39;7.22;;;5.68;;
25948;SDS011;13961;51.178;4.448;2022-08-14T06:56:04;5.97;;;5.40;;
25948;SDS011;13961;51.178;4.448;2022-08-14T06:58:30;5.60;;;5.05;;
25948;SDS011;13961;51.178;4.448;2022-08-14T07:00:56;4.97;;;4.47;;
25948;SDS011;13961;51.178;4.448;2022-08-14T07:03:40;6.38;;;5.13;;
25948;SDS011;13961;51.178;4.448;2022-08-14T07:06:24;5.50;;;4.47;;
25948;SDS011;13961;51.178;4.448;2022-08-14T07:08:50;4.75;;;4.35;;
25948;SDS011;13961;51.178;4.448;2022-08-14T07:11:16;5.28;;;4.78;;
25948;SDS011;13961;51.178;4.448;2022-08-14T07:13:42;5.72;;;4.80;;
25948;SDS011;13961;51.178;4.448;2022-08-14T07:16:08;4.93;;;4.43;;
25948;SDS011;13961;51.178;4.448;2022-08-14T07:18:36;5.32;;;4.82;;
25948;SDS011;13961;51.178;4.448;2022-08-14T07:21:03;5.28;;;4.75;;
25948;SDS011;13961;51.178;4.448;2022-08-14T07:23:30;5.30;;;4.80;;
25948;SDS011;13961;51.178;4.448;2022-08-14T07:25:56;5.70;;;5.20;;
25948;SDS011;13961;51.178;4.448;2022-08-14T07:28:27;5.20;;;4.70;;
25948;SDS011;13961;51.178;4.448;2022-08-14T07:30:57;5.45;;;4.95;;
25948;SDS011;13961;51.178;4.448;2022-08-14T07:33:24;5.70;;;5.10;;
25948;SDS011;13961;51.178;4.448;2022-08-14T07:35:52;6.03;;;5.20;;
25948;SDS011;13961;51.178;4.448;2022-08-14T07:38:19;5.95;;;5.35;;
25948;SDS011;13961;51.178;4.448;2022-08-14T07:40:47;5.50;;;4.95;;
25948;SDS011;13961;51.178;4.448;2022-08-14T07:43:14;5.43;;;4.93;;
25948;SDS011;13961;51.178;4.448;2022-08-14T07:45:41;7.40;;;5.30;;
25948;SDS011;13961;51.178;4.448;2022-08-14T07:48:08;6.03;;;5.43;;
25948;SDS011;13961;51.178;4.448;2022-08-14T07:50:34;6.00;;;5.20;;
25948;SDS011;13961;51.178;4.448;2022-08-14T07:53:00;5.68;;;5.18;;
25948;SDS011;13961;51.178;4.448;2022-08-14T07:55:27;6.20;;;5.60;;
25948;SDS011;13961;51.178;4.448;2022-08-14T07:57:53;7.15;;;5.35;;
25948;SDS011;13961;51.178;4.448;2022-08-14T08:00:19;6.72;;;5.88;;
25948;SDS011;13961;51.178;4.448;2022-08-14T08:02:47;6.78;;;6.07;;
25948;SDS011;13961;51.178;4.448;2022-08-14T08:05:16;6.95;;;6.25;;
25948;SDS011;13961;51.178;4.448;2022-08-14T08:07:43;6.50;;;5.90;;
25948;SDS011;13961;51.178;4.448;2022-08-14T08:10:14;6.40;;;5.80;;
25948;SDS011;13961;51.178;4.448;2022-08-14T08:13:05;7.05;;;6.35;;
25948;SDS011;13961;51.178;4.448;2022-08-14T08:15:34;7.10;;;6.40;;
25948;SDS011;13961;51.178;4.448;2022-08-14T08:18:02;8.65;;;6.00;;
25948;SDS011;13961;51.178;4.448;2022-08-14T08:20:31;7.03;;;6.30;;
25948;SDS011;13961;51.178;4.448;2022-08-14T08:22:58;6.97;;;6.28;;
25948;SDS011;13961;51.178;4.448;2022-08-14T08:25:27;7.07;;;6.38;;
25948;SDS011;13961;51.178;4.448;2022-08-14T08:28:08;9.48;;;6.60;;
25948;SDS011;13961;51.178;4.448;2022-08-14T08:30:36;6.47;;;5.88;;
25948;SDS011;13961;51.178;4.448;2022-08-14T08:33:04;6.63;;;6.03;;
25948;SDS011;13961;51.178;4.448;2022-08-14T08:35:32;7.97;;;6.07;;
25948;SDS011;13961;51.178;4.448;2022-08-14T08:38:09;6.25;;;5.68;;
25948;SDS011;13961;51.178;4.448;2022-08-14T08:40:37;6.72;;;6.03;;
25948;SDS011;13961;51.178;4.448;2022-08-14T08:43:06;6.10;;;5.50;;
25948;SDS011;13961;51.178;4.448;2022-08-14T08:45:34;7.40;;;6.30;;
25948;SDS011;13961;51.178;4.448;2022-08-14T08:48:01;7.97;;;6.78;;
25948;SDS011;13961;51.178;4.448;2022-08-14T08:52:59;6.43;;;5.82;;
25948;SDS011;13961;51.178;4.448;2022-08-14T08:57:55;6.65;;;6.05;;
25948;SDS011;13961;51.178;4.448;2022-08-14T09:00:22;6.65;;;5.60;;
25948;SDS011;13961;51.178;4.448;2022-08-14T09:03:08;8.07;;;5.82;;
25948;SDS011;13961;51.178;4.448;2022-08-14T09:05:36;9.38;;;6.10;;
25948;SDS011;13961;51.178;4.448;2022-08-14T09:08:10;6.28;;;5.68;;
25948;SDS011;13961;51.178;4.448;2022-08-14T09:10:39;9.13;;;5.82;;
25948;SDS011;13961;51.178;4.448;2022-08-14T09:13:06;7.15;;;6.07;;
25948;SDS011;13961;51.178;4.448;2022-08-14T09:15:32;7.03;;;6.32;;
25948;SDS011;13961;51.178;4.448;2022-08-14T09:17:58;7.22;;;5.93;;
25948;SDS011;13961;51.178;4.448;2022-08-14T09:20:24;7.07;;;6.38;;
25948;SDS011;13961;51.178;4.448;2022-08-14T09:22:50;6.63;;;6.03;;
25948;SDS011;13961;51.178;4.448;2022-08-14T09:25:17;7.38;;;6.22;;
25948;SDS011;13961;51.178;4.448;2022-08-14T09:27:43;8.10;;;7.20;;
25948;SDS011;13961;51.178;4.448;2022-08-14T09:30:09;7.55;;;6.85;;
25948;SDS011;13961;51.178;4.448;2022-08-14T09:32:38;9.73;;;6.72;;
25948;SDS011;13961;51.178;4.448;2022-08-14T09:35:18;8.75;;;6.32;;
25948;SDS011;13961;51.178;4.448;2022-08-14T09:43:53;7.10;;;6.40;;
25948;SDS011;13961;51.178;4.448;2022-08-14T09:46:50;6.60;;;5.60;;
25948;SDS011;13961;51.178;4.448;2022-08-14T09:49:33;6.13;;;5.50;;
25948;SDS011;13961;51.178;4.448;2022-08-14T09:52:05;6.88;;;5.97;;
25948;SDS011;13961;51.178;4.448;2022-08-14T09:54:34;6.68;;;5.72;;
25948;SDS011;13961;51.178;4.448;2022-08-14T09:57:04;7.85;;;6.38;;
25948;SDS011;13961;51.178;4.448;2022-08-14T09:59:44;7.55;;;5.78;;
25948;SDS011;13961;51.178;4.448;2022-08-14T10:02:22;5.55;;;5.05;;
25948;SDS011;13961;51.178;4.448;2022-08-14T10:07:35;8.07;;;5.22;;
25948;SDS011;13961;51.178;4.448;2022-08-14T10:10:13;4.80;;;4.30;;
25948;SDS011;13961;51.178;4.448;2022-08-14T10:12:43;5.47;;;4.50;;
25948;SDS011;13961;51.178;4.448;2022-08-14T10:15:13;4.50;;;4.10;;
25948;SDS011;13961;51.178;4.448;2022-08-14T10:17:43;5.65;;;5.10;;
25948;SDS011;13961;51.178;4.448;2022-08-14T10:20:10;7.15;;;4.97;;
25948;SDS011;13961;51.178;4.448;2022-08-14T10:22:37;4.57;;;4.18;;
25948;SDS011;13961;51.178;4.448;2022-08-14T10:25:10;4.20;;;3.80;;
25948;SDS011;13961;51.178;4.448;2022-08-14T10:27:38;4.53;;;4.13;;
25948;SDS011;13961;51.178;4.448;2022-08-14T10:30:10;4.07;;;3.70;;
25948;SDS011;13961;51.178;4.448;2022-08-14T10:32:46;5.47;;;4.00;;
25948;SDS011;13961;51.178;4.448;2022-08-14T10:35:12;4.60;;;4.20;;
25948;SDS011;13961;51.178;4.448;2022-08-14T10:37:46;5.03;;;4.20;;
25948;SDS011;13961;51.178;4.448;2022-08-14T10:40:14;4.55;;;4.05;;
25948;SDS011;13961;51.178;4.448;2022-08-14T10:42:49;4.00;;;3.55;;
25948;SDS011;13961;51.178;4.448;2022-08-14T10:45:16;3.35;;;3.05;;
25948;SDS011;13961;51.178;4.448;2022-08-14T10:47:44;3.85;;;3.47;;
25948;SDS011;13961;51.178;4.448;2022-08-14T10:50:11;4.45;;;3.17;;
25948;SDS011;13961;51.178;4.448;2022-08-14T10:52:37;4.15;;;3.03;;
25948;SDS011;13961;51.178;4.448;2022-08-14T10:55:07;3.35;;;3.05;;
25948;SDS011;13961;51.178;4.448;2022-08-14T10:57:48;3.40;;;3.10;;
25948;SDS011;13961;51.178;4.448;2022-08-14T11:00:19;4.05;;;3.45;;
25948;SDS011;13961;51.178;4.448;2022-08-14T11:02:57;3.40;;;3.10;;
25948;SDS011;13961;51.178;4.448;2022-08-14T11:05:25;3.35;;;2.95;;
25948;SDS011;13961;51.178;4.448;2022-08-14T11:08:02;3.40;;;3.10;;
25948;SDS011;13961;51.178;4.448;2022-08-14T11:10:38;3.45;;;2.97;;
25948;SDS011;13961;51.178;4.448;2022-08-14T11:13:04;3.20;;;2.90;;
25948;SDS011;13961;51.178;4.448;2022-08-14T11:15:31;3.55;;;3.08;;
25948;SDS011;13961;51.178;4.448;2022-08-14T11:17:57;3.22;;;2.92;;
25948;SDS011;13961;51.178;4.448;2022-08-14T11:20:24;3.40;;;3.10;;
25948;SDS011;13961;51.178;4.448;2022-08-14T11:22:52;3.65;;;3.28;;
25948;SDS011;13961;51.178;4.448;2022-08-14T11:25:19;3.47;;;3.17;;
25948;SDS011;13961;51.178;4.448;2022-08-14T11:27:47;3.50;;;3.20;;
25948;SDS011;13961;51.178;4.448;2022-08-14T11:30:17;4.32;;;3.30;;
25948;SDS011;13961;51.178;4.448;2022-08-14T11:32:45;4.45;;;3.17;;
25948;SDS011;13961;51.178;4.448;2022-08-14T11:35:13;3.50;;;3.20;;
25948;SDS011;13961;51.178;4.448;2022-08-14T11:38:03;3.67;;;3.20;;
25948;SDS011;13961;51.178;4.448;2022-08-14T11:40:31;3.55;;;3.15;;
25948;SDS011;13961;51.178;4.448;2022-08-14T11:43:02;3.38;;;3.15;;
25948;SDS011;13961;51.178;4.448;2022-08-14T11:45:34;3.00;;;2.80;;
25948;SDS011;13961;51.178;4.448;2022-08-14T11:48:13;3.30;;;3.00;;
25948;SDS011;13961;51.178;4.448;2022-08-14T11:50:45;3.42;;;2.75;;
25948;SDS011;13961;51.178;4.448;2022-08-14T11:53:19;3.13;;;2.75;;
25948;SDS011;13961;51.178;4.448;2022-08-14T11:55:46;3.95;;;2.65;;
25948;SDS011;13961;51.178;4.448;2022-08-14T11:58:16;3.90;;;3.00;;
25948;SDS011;13961;51.178;4.448;2022-08-14T12:00:48;3.33;;;2.70;;
25948;SDS011;13961;51.178;4.448;2022-08-14T12:03:17;2.97;;;2.75;;
25948;SDS011;13961;51.178;4.448;2022-08-14T12:05:43;2.80;;;2.60;;
25948;SDS011;13961;51.178;4.448;2022-08-14T12:08:10;4.10;;;3.10;;
25948;SDS011;13961;51.178;4.448;2022-08-14T12:10:37;3.03;;;2.72;;
25948;SDS011;13961;51.178;4.448;2022-08-14T12:13:39;3.20;;;2.90;;
25948;SDS011;13961;51.178;4.448;2022-08-14T12:16:01;2.95;;;2.75;;
25948;SDS011;13961;51.178;4.448;2022-08-14T12:18:35;4.97;;;2.75;;
25948;SDS011;13961;51.178;4.448;2022-08-14T12:23:40;3.03;;;2.70;;
25948;SDS011;13961;51.178;4.448;2022-08-14T12:26:08;2.55;;;2.35;;
25948;SDS011;13961;51.178;4.448;2022-08-14T12:28:37;3.40;;;2.90;;
25948;SDS011;13961;51.178;4.448;2022-08-14T12:31:13;2.92;;;2.70;;
25948;SDS011;13961;51.178;4.448;2022-08-14T12:33:41;3.75;;;2.40;;
25948;SDS011;13961;51.178;4.448;2022-08-14T12:36:08;2.80;;;2.60;;
25948;SDS011;13961;51.178;4.448;2022-08-14T12:38:45;2.67;;;2.47;;
25948;SDS011;13961;51.178;4.448;2022-08-14T12:41:11;3.22;;;2.92;;
25948;SDS011;13961;51.178;4.448;2022-08-14T12:43:43;2.83;;;2.55;;
25948;SDS011;13961;51.178;4.448;2022-08-14T12:46:19;3.17;;;2.88;;
25948;SDS011;13961;51.178;4.448;2022-08-14T12:48:59;3.72;;;3.03;;
25948;SDS011;13961;51.178;4.448;2022-08-14T12:51:28;3.10;;;2.80;;
25948;SDS011;13961;51.178;4.448;2022-08-14T12:53:54;3.55;;;2.80;;
25948;SDS011;13961;51.178;4.448;2022-08-14T12:56:22;2.90;;;2.60;;
25948;SDS011;13961;51.178;4.448;2022-08-14T12:58:55;2.95;;;2.70;;
25948;SDS011;13961;51.178;4.448;2022-08-14T13:01:23;2.95;;;2.65;;
25948;SDS011;13961;51.178;4.448;2022-08-14T13:03:51;3.03;;;2.72;;
25948;SDS011;13961;51.178;4.448;2022-08-14T13:06:38;4.90;;;3.00;;
25948;SDS011;13961;51.178;4.448;2022-08-14T13:09:07;3.00;;;2.80;;
25948;SDS011;13961;51.178;4.448;2022-08-14T13:11:37;4.22;;;3.00;;
25948;SDS011;13961;51.178;4.448;2022-08-14T13:14:12;3.20;;;2.95;;
25948;SDS011;13961;51.178;4.448;2022-08-14T13:16:42;3.25;;;2.95;;
25948;SDS011;13961;51.178;4.448;2022-08-14T13:19:10;3.08;;;2.85;;
25948;SDS011;13961;51.178;4.448;2022-08-14T13:21:40;3.80;;;3.22;;
25948;SDS011;13961;51.178;4.448;2022-08-14T13:24:09;3.40;;;3.10;;
25948;SDS011;13961;51.178;4.448;2022-08-14T13:26:41;3.35;;;3.05;;
25948;SDS011;13961;51.178;4.448;2022-08-14T13:29:09;3.30;;;3.00;;
25948;SDS011;13961;51.178;4.448;2022-08-14T13:31:36;3.60;;;3.20;;
25948;SDS011;13961;51.178;4.448;2022-08-14T13:34:03;3.33;;;3.03;;
25948;SDS011;13961;51.178;4.448;2022-08-14T13:36:29;3.10;;;2.80;;
25948;SDS011;13961;51.178;4.448;2022-08-14T13:38:56;3.42;;;2.70;;
25948;SDS011;13961;51.178;4.448;2022-08-14T13:41:25;3.28;;;3.00;;
25948;SDS011;13961;51.178;4.448;2022-08-14T13:43:52;3.30;;;3.00;;
25948;SDS011;13961;51.178;4.448;2022-08-14T13:46:20;3.30;;;3.00;;
25948;SDS011;13961;51.178;4.448;2022-08-14T13:48:46;4.05;;;2.80;;
25948;SDS011;13961;51.178;4.448;2022-08-14T13:51:15;2.85;;;2.65;;
25948;SDS011;13961;51.178;4.448;2022-08-14T13:53:44;3.10;;;2.80;;
25948;SDS011;13961;51.178;4.448;2022-08-14T13:56:10;3.70;;;2.65;;
25948;SDS011;13961;51.178;4.448;2022-08-14T13:58:37;2.97;;;2.75;;
25948;SDS011;13961;51.178;4.448;2022-08-14T14:01:03;3.00;;;2.70;;
25948;SDS011;13961;51.178;4.448;2022-08-14T14:03:32;3.72;;;2.90;;
25948;SDS011;13961;51.178;4.448;2022-08-14T14:06:02;3.28;;;2.92;;
25948;SDS011;13961;51.178;4.448;2022-08-14T14:08:28;3.03;;;2.80;;
25948;SDS011;13961;51.178;4.448;2022-08-14T14:11:00;3.22;;;2.90;;
25948;SDS011;13961;51.178;4.448;2022-08-14T14:13:26;3.10;;;2.80;;
25948;SDS011;13961;51.178;4.448;2022-08-14T14:15:53;2.85;;;2.63;;
25948;SDS011;13961;51.178;4.448;2022-08-14T14:18:20;3.47;;;2.72;;
25948;SDS011;13961;51.178;4.448;2022-08-14T14:20:51;2.95;;;2.75;;
25948;SDS011;13961;51.178;4.448;2022-08-14T14:23:18;3.95;;;2.67;;
25948;SDS011;13961;51.178;4.448;2022-08-14T14:25:44;3.10;;;2.80;;
25948;SDS011;13961;51.178;4.448;2022-08-14T14:28:12;3.13;;;2.58;;
25948;SDS011;13961;51.178;4.448;2022-08-14T14:30:39;3.20;;;2.90;;
25948;SDS011;13961;51.178;4.448;2022-08-14T14:33:10;3.88;;;2.92;;
25948;SDS011;13961;51.178;4.448;2022-08-14T14:35:37;2.70;;;2.50;;
25948;SDS011;13961;51.178;4.448;2022-08-14T14:38:07;3.28;;;2.95;;
25948;SDS011;13961;51.178;4.448;2022-08-14T14:40:34;2.78;;;2.58;;
25948;SDS011;13961;51.178;4.448;2022-08-14T14:43:02;2.85;;;2.65;;
25948;SDS011;13961;51.178;4.448;2022-08-14T14:45:31;2.80;;;2.60;;
25948;SDS011;13961;51.178;4.448;2022-08-14T14:47:57;3.10;;;2.80;;
25948;SDS011;13961;51.178;4.448;2022-08-14T14:50:24;2.85;;;2.60;;
25948;SDS011;13961;51.178;4.448;2022-08-14T14:52:50;2.88;;;2.67;;
25948;SDS011;13961;51.178;4.448;2022-08-14T14:55:17;3.10;;;2.90;;
25948;SDS011;13961;51.178;4.448;2022-08-14T14:57:44;3.10;;;2.90;;
25948;SDS011;13961;51.178;4.448;2022-08-14T15:00:14;3.20;;;2.83;;
25948;SDS011;13961;51.178;4.448;2022-08-14T15:02:47;3.30;;;3.10;;
25948;SDS011;13961;51.178;4.448;2022-08-14T15:05:15;2.83;;;2.63;;
25948;SDS011;13961;51.178;4.448;2022-08-14T15:07:42;3.00;;;2.80;;
25948;SDS011;13961;51.178;4.448;2022-08-14T15:10:11;2.90;;;2.60;;
25948;SDS011;13961;51.178;4.448;2022-08-14T15:12:38;4.15;;;2.90;;
25948;SDS011;13961;51.178;4.448;2022-08-14T15:15:04;2.78;;;2.58;;
25948;SDS011;13961;51.178;4.448;2022-08-14T15:17:30;3.05;;;2.80;;
25948;SDS011;13961;51.178;4.448;2022-08-14T15:20:00;2.80;;;2.60;;